Time;durP1;ratioP1;P1;durP2;ratioP2;P2;SDS_P1;SDS_P2;PMS_P1;PMS_P2;Temp;Humidity;BMP_temperature;BMP_pressure;BME280_temperature;BME280_humidity;BME280_pressure;Samples;Min_cycle;Max_cycle;Signal;HPM_P1;HPM_P2
2021/05/30 00:01:58;;;;;;;7.10;6.07;;;10.90;99.90;;;;;;5031163;28;20818;-68
2021/05/30 00:04:23;;;;;;;6.27;5.67;;;10.90;99.90;;;;;;5031236;28;20517;-68
2021/05/30 00:06:49;;;;;;;6.67;5.50;;;10.80;99.90;;;;;;5031001;28;20744;-68
2021/05/30 00:09:14;;;;;;;7.40;6.70;;;10.80;99.90;;;;;;5030042;28;20198;-68
2021/05/30 00:11:40;;;;;;;6.20;5.67;;;10.80;99.90;;;;;;5030991;28;20193;-68
2021/05/30 00:14:06;;;;;;;9.47;8.03;;;10.80;99.90;;;;;;5030849;28;20257;-68
2021/05/30 00:16:33;;;;;;;7.07;6.57;;;10.90;99.90;;;;;;5030841;28;20874;-68
2021/05/30 00:19:00;;;;;;;7.87;7.33;;;10.80;99.90;;;;;;5030152;28;20409;-68
2021/05/30 00:21:26;;;;;;;7.23;6.73;;;10.80;99.90;;;;;;5031279;28;20421;-68
2021/05/30 00:23:52;;;;;;;6.70;5.93;;;10.80;99.90;;;;;;5030840;28;20417;-68
2021/05/30 00:26:17;;;;;;;10.20;7.73;;;10.90;99.90;;;;;;5030673;28;20440;-68
2021/05/30 00:28:43;;;;;;;8.57;7.87;;;10.70;99.90;;;;;;5030185;28;20488;-68
2021/05/30 00:31:09;;;;;;;8.73;7.93;;;10.70;99.90;;;;;;5030655;28;20166;-68
2021/05/30 00:33:35;;;;;;;7.47;6.77;;;10.60;99.90;;;;;;5030730;28;20428;-68
2021/05/30 00:36:00;;;;;;;8.20;7.50;;;10.60;99.90;;;;;;5030534;28;20182;-68
2021/05/30 00:38:26;;;;;;;7.27;6.67;;;10.70;99.90;;;;;;5030632;28;20199;-68
2021/05/30 00:40:54;;;;;;;8.23;7.40;;;10.70;99.90;;;;;;5030013;28;20174;-68
2021/05/30 00:43:20;;;;;;;6.20;5.73;;;10.70;99.90;;;;;;5030915;28;20170;-68
2021/05/30 00:45:48;;;;;;;6.77;6.27;;;10.60;99.90;;;;;;5030851;28;20409;-68
2021/05/30 00:48:14;;;;;;;6.27;5.73;;;10.50;99.90;;;;;;5030807;28;20831;-68
2021/05/30 00:50:39;;;;;;;5.50;5.10;;;10.40;99.90;;;;;;5030388;28;20608;-68
2021/05/30 00:53:06;;;;;;;5.60;5.20;;;10.40;99.90;;;;;;5029106;28;20425;-68
2021/05/30 00:55:31;;;;;;;5.43;4.97;;;10.30;99.90;;;;;;5030465;28;20181;-68
2021/05/30 00:57:57;;;;;;;5.77;5.27;;;10.30;99.90;;;;;;5030675;28;20457;-68
2021/05/30 01:00:23;;;;;;;6.40;5.80;;;10.30;99.90;;;;;;5029878;28;20166;-68
2021/05/30 01:02:49;;;;;;;8.37;7.67;;;10.20;99.90;;;;;;5030736;28;20202;-68
2021/05/30 01:05:15;;;;;;;6.70;5.37;;;10.10;99.90;;;;;;5030348;28;20488;-68
2021/05/30 01:07:41;;;;;;;6.07;5.47;;;10.10;99.90;;;;;;5030405;28;20220;-68
2021/05/30 01:10:25;;;;;;;6.00;5.40;;;10.10;99.90;;;;;;5028337;28;20690;-67
2021/05/30 01:12:51;;;;;;;4.63;4.33;;;10.00;99.90;;;;;;5030420;28;20524;-66
2021/05/30 01:15:17;;;;;;;5.00;4.60;;;9.90;99.90;;;;;;5030143;28;20459;-67
2021/05/30 01:17:44;;;;;;;5.50;4.73;;;9.90;99.90;;;;;;5030304;28;20433;-66
2021/05/30 01:20:16;;;;;;;5.37;4.87;;;9.90;99.90;;;;;;5029517;28;20926;-67
2021/05/30 01:22:43;;;;;;;5.00;4.60;;;9.90;99.90;;;;;;5029941;28;20429;-67
2021/05/30 01:25:11;;;;;;;8.10;7.40;;;9.90;99.90;;;;;;5030143;28;20420;-67
2021/05/30 01:27:37;;;;;;;5.27;4.60;;;9.90;99.90;;;;;;5030042;28;20467;-67
2021/05/30 01:30:05;;;;;;;6.00;5.50;;;10.00;99.90;;;;;;5029448;28;20492;-67
2021/05/30 01:32:31;;;;;;;4.90;4.50;;;10.10;99.90;;;;;;5030263;28;20408;-67
2021/05/30 01:34:57;;;;;;;5.70;5.20;;;10.10;99.90;;;;;;5030307;28;20432;-67
2021/05/30 01:37:23;;;;;;;7.03;5.73;;;10.10;99.90;;;;;;5030218;28;20432;-67
2021/05/30 01:39:48;;;;;;;4.30;3.90;;;10.10;99.90;;;;;;5029568;28;20416;-68
2021/05/30 01:42:14;;;;;;;6.00;5.40;;;10.00;99.90;;;;;;5030291;28;20178;-67
2021/05/30 01:44:39;;;;;;;4.70;4.30;;;9.90;99.90;;;;;;5030125;28;20513;-67
2021/05/30 01:47:05;;;;;;;4.80;4.40;;;9.80;99.90;;;;;;5030777;28;20320;-67
2021/05/30 01:49:31;;;;;;;5.30;4.30;;;9.80;99.90;;;;;;5032775;28;20542;-67
2021/05/30 01:51:56;;;;;;;4.87;4.40;;;9.70;99.90;;;;;;5033522;28;20631;-67
2021/05/30 01:54:22;;;;;;;5.07;4.57;;;9.70;99.90;;;;;;5033651;28;20189;-67
2021/05/30 01:56:57;;;;;;;4.07;3.77;;;9.60;99.90;;;;;;5033386;28;20232;-67
2021/05/30 01:59:24;;;;;;;4.80;4.03;;;9.70;99.90;;;;;;5031484;28;20181;-67
2021/05/30 02:01:52;;;;;;;11.90;4.47;;;9.60;99.90;;;;;;5033413;28;20423;-67
2021/05/30 02:04:21;;;;;;;4.30;4.00;;;9.50;99.90;;;;;;5033232;28;20446;-67
2021/05/30 02:06:48;;;;;;;6.27;5.67;;;9.40;99.90;;;;;;5033110;28;20441;-67
2021/05/30 02:09:15;;;;;;;5.30;4.80;;;9.30;99.90;;;;;;5032607;28;20468;-67
2021/05/30 02:11:41;;;;;;;8.00;6.67;;;9.40;99.90;;;;;;5033350;28;20766;-67
2021/05/30 02:14:07;;;;;;;5.30;4.80;;;9.40;99.90;;;;;;5033644;28;20428;-67
2021/05/30 02:16:34;;;;;;;5.80;5.40;;;9.50;99.90;;;;;;5032971;28;20222;-67
2021/05/30 02:19:00;;;;;;;8.03;7.07;;;9.50;99.90;;;;;;5032221;28;20486;-67
2021/05/30 02:21:26;;;;;;;29.03;26.23;;;9.60;99.90;;;;;;5032953;28;20421;-67
2021/05/30 02:23:52;;;;;;;15.00;13.60;;;9.60;99.90;;;;;;5033182;28;20170;-67
2021/05/30 02:26:17;;;;;;;9.90;9.10;;;9.70;99.90;;;;;;5033045;28;20437;-67
2021/05/30 02:28:43;;;;;;;12.97;11.77;;;9.70;99.90;;;;;;5032218;28;20510;-67
2021/05/30 02:31:08;;;;;;;8.63;7.93;;;9.50;99.90;;;;;;5032742;28;20194;-67
2021/05/30 02:33:35;;;;;;;28.77;26.07;;;9.50;99.90;;;;;;5032763;28;20170;-67
2021/05/30 02:36:00;;;;;;;16.43;15.03;;;9.50;99.90;;;;;;5032930;28;20197;-68
2021/05/30 02:38:26;;;;;;;10.40;9.40;;;9.60;99.90;;;;;;5032855;28;20421;-68
2021/05/30 02:40:51;;;;;;;9.37;8.57;;;9.60;99.90;;;;;;5031995;28;20231;-68
2021/05/30 02:43:17;;;;;;;14.50;13.07;;;9.50;99.90;;;;;;5032557;28;20181;-68
2021/05/30 02:45:42;;;;;;;13.20;12.10;;;9.40;99.90;;;;;;5032925;28;20619;-68
2021/05/30 02:48:08;;;;;;;10.90;9.90;;;9.30;99.90;;;;;;5032504;28;20170;-69
2021/05/30 02:50:33;;;;;;;10.17;9.13;;;9.30;99.90;;;;;;5031859;28;20292;-68
2021/05/30 02:52:59;;;;;;;10.87;8.90;;;9.30;99.90;;;;;;5031241;28;20236;-68
2021/05/30 02:55:24;;;;;;;7.17;6.53;;;9.20;99.90;;;;;;5032388;28;20241;-68
2021/05/30 02:57:50;;;;;;;6.80;6.20;;;9.20;99.90;;;;;;5031194;28;20202;-68
2021/05/30 03:00:17;;;;;;;6.23;5.70;;;9.10;99.90;;;;;;5031539;28;20170;-68
2021/05/30 03:02:42;;;;;;;8.63;6.90;;;9.10;99.90;;;;;;5030920;28;20217;-68
2021/05/30 03:05:09;;;;;;;6.83;5.27;;;9.10;99.90;;;;;;5032054;28;20449;-68
2021/05/30 03:07:34;;;;;;;7.33;5.40;;;9.00;99.90;;;;;;5032383;28;20191;-68
2021/05/30 03:10:00;;;;;;;7.37;6.67;;;8.90;99.90;;;;;;5031683;28;20467;-68
2021/05/30 03:12:25;;;;;;;6.50;5.90;;;8.90;99.90;;;;;;5032237;28;20189;-68
2021/05/30 03:14:51;;;;;;;8.80;8.10;;;9.00;99.90;;;;;;5032016;28;20166;-68
2021/05/30 03:17:17;;;;;;;9.73;8.83;;;9.00;99.90;;;;;;5031568;28;20603;-68
2021/05/30 03:19:42;;;;;;;13.23;11.97;;;9.10;99.90;;;;;;5031241;28;20666;-68
2021/05/30 03:22:08;;;;;;;9.90;9.07;;;9.10;99.90;;;;;;5031895;28;20320;-68
2021/05/30 03:24:34;;;;;;;9.67;8.80;;;9.00;99.90;;;;;;5031968;28;20162;-68
2021/05/30 03:26:59;;;;;;;8.20;7.60;;;9.00;99.90;;;;;;5031814;28;20198;-68
2021/05/30 03:29:25;;;;;;;9.40;8.60;;;9.00;99.90;;;;;;5030801;28;20194;-68
2021/05/30 03:31:51;;;;;;;9.13;8.33;;;8.90;99.90;;;;;;5031609;28;20264;-68
2021/05/30 03:34:16;;;;;;;8.43;7.73;;;8.90;99.90;;;;;;5031560;28;20174;-68
2021/05/30 03:36:43;;;;;;;9.23;8.30;;;8.90;99.90;;;;;;5031543;28;20201;-68
2021/05/30 03:39:09;;;;;;;7.03;6.50;;;9.00;99.90;;;;;;5030890;28;20202;-68
2021/05/30 03:41:39;;;;;;;8.27;7.10;;;8.90;99.90;;;;;;5031611;28;20984;-68
2021/05/30 03:44:06;;;;;;;8.63;7.90;;;8.90;99.90;;;;;;5031438;28;20416;-69
2021/05/30 03:46:32;;;;;;;11.20;10.20;;;8.90;99.90;;;;;;5011581;28;20438;-68
2021/05/30 03:48:58;;;;;;;11.80;10.70;;;9.00;99.90;;;;;;5010739;28;20493;-68
2021/05/30 03:51:24;;;;;;;14.67;13.27;;;9.10;99.90;;;;;;5011553;28;20446;-68
2021/05/30 03:53:50;;;;;;;11.30;10.20;;;9.10;99.90;;;;;;5011742;28;20167;-68
2021/05/30 03:56:15;;;;;;;15.03;13.33;;;9.20;99.90;;;;;;5011419;28;20699;-69
2021/05/30 03:58:41;;;;;;;10.60;9.70;;;9.30;99.90;;;;;;5010891;28;20428;-68
2021/05/30 04:01:06;;;;;;;10.30;9.40;;;9.40;99.90;;;;;;5027085;28;20205;-68
2021/05/30 04:03:32;;;;;;;9.60;8.60;;;9.40;99.90;;;;;;5049910;28;20173;-68
2021/05/30 04:05:57;;;;;;;9.10;8.30;;;9.60;99.90;;;;;;5032277;28;20205;-68
2021/05/30 04:08:23;;;;;;;9.50;8.70;;;9.50;99.90;;;;;;5043310;28;20230;-68
2021/05/30 04:10:50;;;;;;;9.10;8.30;;;9.60;99.90;;;;;;5031167;28;20228;-69
2021/05/30 04:13:16;;;;;;;8.33;7.63;;;9.60;99.90;;;;;;5030719;28;20178;-68
2021/05/30 04:15:41;;;;;;;8.60;7.80;;;9.70;99.90;;;;;;5030803;28;20586;-68
2021/05/30 04:18:07;;;;;;;7.73;7.03;;;9.70;99.90;;;;;;5030980;28;20639;-69
2021/05/30 04:20:32;;;;;;;7.67;6.90;;;9.80;99.90;;;;;;5032401;28;20189;-68
2021/05/30 04:22:58;;;;;;;7.10;6.40;;;9.90;99.90;;;;;;5048794;28;20192;-68
2021/05/30 04:25:23;;;;;;;7.00;6.40;;;10.00;99.90;;;;;;5051094;28;20516;-69
2021/05/30 04:27:49;;;;;;;7.27;6.57;;;10.00;99.90;;;;;;5044198;28;20340;-69
2021/05/30 04:30:15;;;;;;;6.23;5.73;;;10.10;99.90;;;;;;5029765;28;20285;-68
2021/05/30 04:32:42;;;;;;;6.30;5.53;;;10.20;99.90;;;;;;5030736;28;20590;-68
2021/05/30 04:35:08;;;;;;;5.77;5.27;;;10.20;99.90;;;;;;5030725;28;20814;-68
2021/05/30 04:37:34;;;;;;;6.47;5.97;;;10.40;99.90;;;;;;5029756;28;20984;-69
2021/05/30 04:40:00;;;;;;;5.47;5.03;;;10.50;99.90;;;;;;5030139;28;20425;-69
2021/05/30 04:42:26;;;;;;;6.53;5.93;;;10.60;99.90;;;;;;5030636;28;20178;-69
2021/05/30 04:44:51;;;;;;;6.30;5.80;;;10.60;99.90;;;;;;5030463;28;20750;-69
2021/05/30 04:47:17;;;;;;;6.00;5.33;;;10.70;99.90;;;;;;5030361;28;20633;-69
2021/05/30 04:49:42;;;;;;;5.80;5.30;;;10.80;99.90;;;;;;5029918;28;20206;-68
2021/05/30 04:52:10;;;;;;;6.07;5.47;;;11.10;99.90;;;;;;5030555;28;20182;-69
2021/05/30 04:54:35;;;;;;;6.20;5.70;;;11.20;99.90;;;;;;5030909;28;20622;-69
2021/05/30 04:57:02;;;;;;;6.70;5.50;;;11.40;99.90;;;;;;5030785;28;20685;-69
2021/05/30 04:59:28;;;;;;;6.07;5.47;;;11.60;99.90;;;;;;5029690;28;20181;-69
2021/05/30 05:01:54;;;;;;;6.33;5.73;;;11.80;99.90;;;;;;5030435;28;20438;-70
2021/05/30 05:04:19;;;;;;;5.90;5.40;;;12.00;99.90;;;;;;5030435;28;20910;-69
2021/05/30 05:06:45;;;;;;;5.70;4.90;;;12.10;99.90;;;;;;5030385;28;20240;-69
2021/05/30 05:09:10;;;;;;;5.80;5.33;;;12.30;99.90;;;;;;5029647;28;20271;-69
2021/05/30 05:11:36;;;;;;;5.17;4.67;;;12.40;99.90;;;;;;5030439;28;20641;-69
2021/05/30 05:14:03;;;;;;;5.73;5.23;;;12.50;99.90;;;;;;5028933;28;20261;-69
2021/05/30 05:16:28;;;;;;;5.53;5.03;;;12.70;99.90;;;;;;5030307;28;20190;-69
2021/05/30 05:18:54;;;;;;;5.73;5.10;;;12.90;99.90;;;;;;5029577;28;20941;-69
2021/05/30 05:21:20;;;;;;;5.70;5.20;;;13.10;99.90;;;;;;5031192;28;20178;-69
2021/05/30 05:23:45;;;;;;;6.60;6.10;;;13.20;99.90;;;;;;5034305;28;20170;-69
2021/05/30 05:26:11;;;;;;;5.60;5.10;;;13.30;99.90;;;;;;5034016;28;20202;-69
2021/05/30 05:28:37;;;;;;;5.10;4.73;;;13.40;99.90;;;;;;5032136;28;20751;-69
2021/05/30 05:31:04;;;;;;;6.00;5.50;;;13.50;99.90;;;;;;5033622;28;20429;-69
2021/05/30 05:33:30;;;;;;;6.23;5.73;;;13.70;99.90;;;;;;5034095;28;20417;-69
2021/05/30 05:35:55;;;;;;;6.30;5.90;;;13.80;99.90;;;;;;5033982;28;20925;-69
2021/05/30 05:38:21;;;;;;;5.50;4.80;;;14.00;99.90;;;;;;5032700;28;20851;-69
2021/05/30 05:40:47;;;;;;;5.83;5.37;;;14.10;99.90;;;;;;5033233;28;20170;-69
2021/05/30 05:43:12;;;;;;;6.80;6.20;;;14.30;99.90;;;;;;5033523;28;20166;-69
2021/05/30 05:45:38;;;;;;;5.70;5.07;;;14.50;99.90;;;;;;5033426;28;20189;-69
2021/05/30 05:48:15;;;;;;;5.23;4.60;;;14.50;99.90;;;;;;5033688;28;20177;-69
2021/05/30 05:50:42;;;;;;;6.47;6.00;;;14.70;99.90;;;;;;5032890;28;20456;-69
2021/05/30 05:53:08;;;;;;;5.83;5.20;;;14.90;99.90;;;;;;5033569;28;20413;-69
2021/05/30 05:55:34;;;;;;;5.33;4.93;;;15.00;99.90;;;;;;5033478;28;20889;-69
2021/05/30 05:58:00;;;;;;;5.67;5.20;;;15.10;99.90;;;;;;5033245;28;20205;-69
2021/05/30 06:00:26;;;;;;;6.20;5.50;;;15.20;99.90;;;;;;5031763;28;20573;-68
2021/05/30 06:02:52;;;;;;;5.97;5.43;;;15.10;99.90;;;;;;5033951;28;20467;-68
2021/05/30 06:05:20;;;;;;;6.97;5.00;;;15.30;99.90;;;;;;5033351;28;20170;-69
2021/05/30 06:07:47;;;;;;;5.80;4.60;;;15.30;99.90;;;;;;5033287;28;20201;-69
2021/05/30 06:10:14;;;;;;;5.57;5.10;;;15.40;99.90;;;;;;5032267;28;20815;-68
2021/05/30 06:12:40;;;;;;;6.40;5.80;;;15.50;99.90;;;;;;5033285;28;20893;-69
2021/05/30 06:15:06;;;;;;;6.67;5.40;;;15.60;99.90;;;;;;5033136;28;20444;-68
2021/05/30 06:17:32;;;;;;;5.63;5.20;;;15.70;99.90;;;;;;5033110;28;20194;-68
2021/05/30 06:19:58;;;;;;;5.00;4.70;;;15.80;99.90;;;;;;5032334;28;20425;-68
2021/05/30 06:22:23;;;;;;;6.50;5.90;;;15.90;99.90;;;;;;5032760;28;20182;-69
2021/05/30 06:24:49;;;;;;;5.90;5.37;;;16.10;99.90;;;;;;5032931;28;20177;-69
2021/05/30 06:27:14;;;;;;;6.40;5.90;;;16.20;99.90;;;;;;5031266;28;20667;-68
2021/05/30 06:29:40;;;;;;;6.33;5.83;;;16.10;99.90;;;;;;5039329;28;20205;-69
2021/05/30 06:32:06;;;;;;;5.60;4.77;;;16.20;99.90;;;;;;5052600;28;20170;-69
2021/05/30 06:34:32;;;;;;;5.67;5.17;;;16.40;99.90;;;;;;5052721;28;20208;-69
2021/05/30 06:36:57;;;;;;;5.90;5.40;;;16.50;99.90;;;;;;5052639;28;20456;-68
2021/05/30 06:39:24;;;;;;;5.53;5.03;;;16.60;99.90;;;;;;5051897;28;20654;-68
2021/05/30 06:41:50;;;;;;;5.60;5.13;;;16.70;99.90;;;;;;5052680;28;20512;-68
2021/05/30 06:44:16;;;;;;;5.33;4.83;;;16.90;99.90;;;;;;5050996;28;20454;-68
2021/05/30 06:46:41;;;;;;;5.10;4.70;;;17.00;99.90;;;;;;5032647;28;20470;-62
2021/05/30 06:49:07;;;;;;;6.07;5.30;;;17.10;99.90;;;;;;5031763;28;20554;-64
2021/05/30 06:51:33;;;;;;;5.13;4.77;;;17.20;99.90;;;;;;5032420;28;20253;-63
2021/05/30 06:54:00;;;;;;;4.87;4.17;;;17.30;99.90;;;;;;5030881;28;20182;-65
2021/05/30 06:56:26;;;;;;;5.60;5.10;;;17.50;99.90;;;;;;5032291;28;20510;-66
2021/05/30 06:58:52;;;;;;;4.77;4.37;;;17.30;99.90;;;;;;5031947;28;20471;-65
2021/05/30 07:01:19;;;;;;;4.30;3.90;;;17.50;99.90;;;;;;5032253;28;20906;-65
2021/05/30 07:03:46;;;;;;;4.43;4.13;;;17.40;99.90;;;;;;5032301;28;20257;-64
2021/05/30 07:06:11;;;;;;;6.50;5.80;;;17.20;99.90;;;;;;5032112;28;20519;-65
2021/05/30 07:08:37;;;;;;;5.17;4.77;;;17.50;99.90;;;;;;5031052;28;20520;-65
2021/05/30 07:11:03;;;;;;;5.10;4.40;;;17.50;99.90;;;;;;5031668;28;20558;-64
2021/05/30 07:13:28;;;;;;;4.63;4.23;;;17.20;99.90;;;;;;5031798;28;20178;-64
2021/05/30 07:15:54;;;;;;;4.77;4.47;;;17.00;99.90;;;;;;5032013;28;20174;-65
2021/05/30 07:18:20;;;;;;;3.93;3.73;;;17.30;99.90;;;;;;5032256;28;20174;-64
2021/05/30 07:20:47;;;;;;;5.23;4.90;;;17.50;99.90;;;;;;5031407;28;20202;-65
2021/05/30 07:23:13;;;;;;;4.07;3.47;;;17.30;99.90;;;;;;5032033;28;20432;-64
2021/05/30 07:25:39;;;;;;;4.27;3.97;;;17.30;99.90;;;;;;5031744;28;20436;-63
2021/05/30 07:28:05;;;;;;;3.90;3.60;;;17.40;99.40;;;;;;5031446;28;20817;-64
2021/05/30 07:30:32;;;;;;;3.90;3.60;;;17.40;98.20;;;;;;5031054;28;20213;-63
2021/05/30 07:32:57;;;;;;;4.00;3.70;;;17.40;98.10;;;;;;5031684;28;20421;-64
2021/05/30 07:35:23;;;;;;;4.37;3.80;;;17.40;99.70;;;;;;5031481;28;20778;-65
2021/05/30 07:37:50;;;;;;;4.90;4.30;;;17.80;99.90;;;;;;5031569;28;20702;-65
2021/05/30 07:40:16;;;;;;;5.50;4.57;;;18.30;99.90;;;;;;5031061;28;20189;-64
2021/05/30 07:42:41;;;;;;;3.87;3.67;;;18.60;99.90;;;;;;5030027;28;20459;-64
2021/05/30 07:45:07;;;;;;;5.17;4.77;;;18.80;99.90;;;;;;5030763;28;20799;-65
2021/05/30 07:47:33;;;;;;;4.60;4.20;;;18.70;99.30;;;;;;5029793;28;20205;-67
2021/05/30 07:49:59;;;;;;;4.97;4.57;;;18.80;97.80;;;;;;5030205;28;20460;-64
2021/05/30 07:52:24;;;;;;;3.97;3.67;;;18.60;97.50;;;;;;5031621;28;20567;-64
2021/05/30 07:54:50;;;;;;;6.83;5.10;;;18.60;98.70;;;;;;5031771;28;20631;-64
2021/05/30 07:57:15;;;;;;;4.83;4.43;;;19.10;98.70;;;;;;5030885;28;20281;-64
2021/05/30 07:59:41;;;;;;;3.93;3.63;;;19.60;97.40;;;;;;5030530;28;20667;-64
2021/05/30 08:02:07;;;;;;;5.73;3.53;;;19.80;94.00;;;;;;5031583;28;20174;-64
2021/05/30 08:04:32;;;;;;;4.47;4.17;;;19.80;93.60;;;;;;5031172;28;20216;-65
2021/05/30 08:06:58;;;;;;;5.23;4.73;;;19.90;94.70;;;;;;5030925;28;20946;-64
2021/05/30 08:09:24;;;;;;;6.13;4.17;;;20.20;94.40;;;;;;5030337;28;20202;-65
2021/05/30 08:11:49;;;;;;;4.47;4.17;;;20.60;93.40;;;;;;5030994;28;20177;-65
2021/05/30 08:14:15;;;;;;;7.03;4.70;;;20.70;92.90;;;;;;5031116;28;20163;-65
2021/05/30 08:16:41;;;;;;;5.60;3.90;;;20.80;91.90;;;;;;5030929;28;20235;-64
2021/05/30 08:19:07;;;;;;;4.30;4.00;;;21.00;91.00;;;;;;5030709;28;20292;-64
2021/05/30 08:21:32;;;;;;;4.07;3.77;;;21.10;90.10;;;;;;5030680;28;20503;-64
2021/05/30 08:23:58;;;;;;;4.40;4.10;;;21.30;90.10;;;;;;5031046;28;20185;-64
2021/05/30 08:26:24;;;;;;;4.40;3.80;;;21.50;86.50;;;;;;5030874;28;20201;-64
2021/05/30 08:28:50;;;;;;;5.67;3.90;;;21.80;85.30;;;;;;5030126;28;20273;-64
2021/05/30 08:31:16;;;;;;;4.40;3.90;;;21.80;81.00;;;;;;5030656;28;20559;-65
2021/05/30 08:33:41;;;;;;;4.40;3.23;;;22.00;80.40;;;;;;5030687;28;20253;-64
2021/05/30 08:36:07;;;;;;;4.50;3.60;;;22.10;77.90;;;;;;5030454;28;20186;-64
2021/05/30 08:38:32;;;;;;;3.90;3.50;;;22.10;75.30;;;;;;5030316;28;20174;-64
2021/05/30 08:40:59;;;;;;;3.40;3.20;;;22.20;73.90;;;;;;5030361;28;20176;-65
2021/05/30 08:43:26;;;;;;;3.57;3.27;;;22.10;73.70;;;;;;5030652;28;20600;-64
2021/05/30 08:45:52;;;;;;;3.37;3.07;;;22.10;72.00;;;;;;5030753;28;20423;-65
2021/05/30 08:48:17;;;;;;;3.57;3.37;;;22.00;68.80;;;;;;5028528;28;20421;-64
2021/05/30 08:50:43;;;;;;;4.17;3.50;;;21.40;69.00;;;;;;5029598;28;20518;-65
2021/05/30 08:53:09;;;;;;;4.13;3.83;;;21.50;67.50;;;;;;5030481;28;20174;-64
2021/05/30 08:55:38;;;;;;;3.07;2.87;;;21.70;67.80;;;;;;5030608;28;20808;-64
2021/05/30 08:58:05;;;;;;;3.97;3.67;;;21.50;66.80;;;;;;5033778;28;20445;-64
2021/05/30 09:00:32;;;;;;;3.47;3.27;;;21.80;67.40;;;;;;5033951;28;20437;-63
2021/05/30 09:03:15;;;;;;;3.70;3.40;;;21.80;65.40;;;;;;5034446;28;20417;-65
2021/05/30 09:05:41;;;;;;;2.50;2.40;;;21.70;65.70;;;;;;5034478;28;20421;-64
2021/05/30 09:08:08;;;;;;;3.17;2.87;;;21.80;64.40;;;;;;5034503;28;20932;-67
2021/05/30 09:10:35;;;;;;;3.90;3.60;;;21.70;65.30;;;;;;5034288;28;20460;-64
2021/05/30 09:13:13;;;;;;;2.97;2.77;;;21.80;64.70;;;;;;5034263;28;20479;-64
2021/05/30 09:16:06;;;;;;;3.77;3.10;;;21.60;61.80;;;;;;5034147;28;20416;-65
2021/05/30 09:18:34;;;;;;;2.93;2.73;;;21.60;63.10;;;;;;5034359;28;20452;-65
2021/05/30 09:21:04;;;;;;;3.17;2.87;;;21.60;59.50;;;;;;5033847;28;20902;-64
2021/05/30 09:23:40;;;;;;;3.00;2.70;;;21.80;59.70;;;;;;5034146;28;20440;-65
2021/05/30 09:26:20;;;;;;;3.73;3.43;;;21.80;60.20;;;;;;5033804;28;20440;-65
2021/05/30 09:29:09;;;;;;;4.07;3.77;;;22.10;60.10;;;;;;5033255;28;20471;-65
2021/05/30 09:31:52;;;;;;;3.93;3.37;;;22.60;59.90;;;;;;5034257;28;20913;-64
2021/05/30 09:34:25;;;;;;;3.63;3.33;;;22.90;59.80;;;;;;5034633;28;20411;-64
2021/05/30 09:36:51;;;;;;;3.83;3.53;;;23.10;60.10;;;;;;5034579;28;20520;-64
2021/05/30 09:39:42;;;;;;;3.00;2.77;;;23.10;59.90;;;;;;5033626;28;20425;-64
2021/05/30 09:42:36;;;;;;;4.30;4.00;;;23.60;60.70;;;;;;5034467;28;20432;-64
2021/05/30 09:45:12;;;;;;;6.63;3.27;;;23.80;58.10;;;;;;5034880;28;20454;-65
2021/05/30 09:47:45;;;;;;;3.97;3.67;;;24.10;57.70;;;;;;5033983;28;20523;-64
2021/05/30 09:50:16;;;;;;;3.13;2.90;;;24.20;56.60;;;;;;5034020;28;20934;-65
2021/05/30 09:52:42;;;;;;;4.07;3.73;;;24.50;54.50;;;;;;5034162;28;20421;-64
2021/05/30 09:55:23;;;;;;;3.60;3.30;;;24.40;53.40;;;;;;5033801;28;20423;-63
2021/05/30 09:58:18;;;;;;;3.40;3.20;;;24.20;53.00;;;;;;5033390;28;20599;-64
2021/05/30 10:00:56;;;;;;;3.70;3.40;;;23.40;55.70;;;;;;5032852;28;20420;-64
2021/05/30 10:03:22;;;;;;;3.87;3.57;;;23.80;55.70;;;;;;5031675;28;20424;-65
2021/05/30 10:05:48;;;;;;;3.90;3.60;;;23.50;56.30;;;;;;5033619;28;20424;-65
2021/05/30 10:08:18;;;;;;;3.53;3.33;;;23.30;56.90;;;;;;5033126;28;20417;-65
2021/05/30 10:10:45;;;;;;;3.30;3.10;;;23.90;55.90;;;;;;5032912;28;20452;-64
2021/05/30 10:13:11;;;;;;;4.60;3.77;;;24.80;52.40;;;;;;5033893;28;20425;-64
2021/05/30 10:15:38;;;;;;;3.30;3.10;;;25.80;50.30;;;;;;5033696;28;20500;-64
2021/05/30 10:18:34;;;;;;;3.63;3.33;;;25.20;50.40;;;;;;5033336;28;20413;-64
2021/05/30 10:21:00;;;;;;;3.27;3.07;;;25.10;50.40;;;;;;5033104;28;20925;-65
2021/05/30 10:23:27;;;;;;;4.63;4.23;;;25.00;50.70;;;;;;5033557;28;20424;-65
2021/05/30 10:26:18;;;;;;;4.20;3.70;;;25.20;50.20;;;;;;5033459;28;20417;-65
2021/05/30 10:28:58;;;;;;;4.00;3.70;;;26.10;49.40;;;;;;5032632;28;20466;-65
2021/05/30 10:31:28;;;;;;;3.73;3.43;;;26.80;47.10;;;;;;5033317;28;20466;-65
2021/05/30 10:34:09;;;;;;;3.10;2.90;;;27.50;45.90;;;;;;5033323;28;20416;-65
2021/05/30 10:36:36;;;;;;;3.90;3.60;;;27.90;44.10;;;;;;5032639;28;20483;-65
2021/05/30 10:39:03;;;;;;;4.73;4.13;;;28.50;44.10;;;;;;5032067;28;20772;-65
2021/05/30 10:41:29;;;;;;;3.80;3.50;;;27.30;44.70;;;;;;5033022;28;20524;-65
2021/05/30 10:43:54;;;;;;;4.60;4.20;;;27.60;45.10;;;;;;5033317;28;20468;-66
2021/05/30 10:46:23;;;;;;;4.23;3.90;;;28.40;45.00;;;;;;5033064;28;20273;-65
2021/05/30 10:49:07;;;;;;;3.93;3.63;;;28.60;43.10;;;;;;5031987;28;20635;-65
2021/05/30 10:51:47;;;;;;;4.00;3.70;;;27.70;43.80;;;;;;5032288;28;20425;-65
2021/05/30 10:54:13;;;;;;;4.90;3.80;;;28.90;43.00;;;;;;5032389;28;20910;-65
2021/05/30 10:56:54;;;;;;;4.30;3.90;;;30.20;41.30;;;;;;5032741;28;20475;-64
2021/05/30 10:59:22;;;;;;;4.10;3.83;;;31.30;40.50;;;;;;5031622;28;20478;-65
2021/05/30 11:01:49;;;;;;;3.37;3.17;;;32.20;39.20;;;;;;5032466;28;20453;-64
2021/05/30 11:04:28;;;;;;;3.63;3.30;;;32.40;37.30;;;;;;5032513;28;20416;-64
2021/05/30 11:06:59;;;;;;;3.60;3.30;;;31.70;37.60;;;;;;5032189;28;20443;-65
2021/05/30 11:09:51;;;;;;;3.83;3.53;;;31.30;37.60;;;;;;5031310;28;20452;-64
2021/05/30 11:12:18;;;;;;;3.67;3.37;;;29.50;37.70;;;;;;5031819;28;20428;-64
2021/05/30 11:15:13;;;;;;;3.67;3.37;;;28.70;38.90;;;;;;5032016;28;20419;-64
2021/05/30 11:17:51;;;;;;;3.43;3.13;;;28.60;38.90;;;;;;5032159;28;20475;-64
2021/05/30 11:20:19;;;;;;;3.40;3.20;;;27.70;39.00;;;;;;5030550;28;20539;-64
2021/05/30 11:23:16;;;;;;;4.13;3.80;;;26.50;39.20;;;;;;5031542;28;20417;-64
2021/05/30 11:25:54;;;;;;;4.13;3.90;;;26.90;40.00;;;;;;5022770;28;20454;-64
2021/05/30 11:28:24;;;;;;;4.40;4.20;;;29.00;38.40;;;;;;5031777;28;20447;-64
2021/05/30 11:30:53;;;;;;;3.13;2.93;;;30.70;36.70;;;;;;5031008;28;20526;-64
2021/05/30 11:33:21;;;;;;;3.77;3.20;;;31.70;36.20;;;;;;5032073;28;20456;-64
2021/05/30 11:35:50;;;;;;;4.53;3.93;;;30.70;36.40;;;;;;5031603;28;20409;-64
2021/05/30 11:38:15;;;;;;;4.13;3.83;;;28.50;36.60;;;;;;5031818;28;20415;-64
2021/05/30 11:40:41;;;;;;;3.70;3.40;;;27.40;38.60;;;;;;5031175;28;20499;-64
2021/05/30 11:43:25;;;;;;;3.90;3.10;;;28.20;38.40;;;;;;5031489;28;20174;-64
2021/05/30 11:45:50;;;;;;;4.20;3.80;;;30.50;36.40;;;;;;5031441;28;20181;-65
2021/05/30 11:48:18;;;;;;;4.43;3.17;;;32.60;35.50;;;;;;5031533;28;20500;-65
2021/05/30 11:50:51;;;;;;;3.60;3.30;;;34.00;33.10;;;;;;5029300;28;20202;-65
2021/05/30 11:53:26;;;;;;;3.77;3.47;;;33.50;32.20;;;;;;5031491;28;20413;-65
2021/05/30 11:55:52;;;;;;;3.53;3.23;;;31.40;32.80;;;;;;5030098;28;20420;-64
2021/05/30 11:58:18;;;;;;;3.30;3.10;;;32.20;32.60;;;;;;5031373;28;20449;-65
2021/05/30 12:00:44;;;;;;;3.40;3.10;;;31.70;33.00;;;;;;5030737;28;20951;-64
2021/05/30 12:03:12;;;;;;;4.27;3.47;;;31.80;32.80;;;;;;5031108;28;20177;-64
2021/05/30 12:05:38;;;;;;;4.30;3.90;;;31.20;33.20;;;;;;5031163;28;20420;-64
2021/05/30 12:08:17;;;;;;;4.03;3.73;;;31.10;33.60;;;;;;5031067;28;20494;-64
2021/05/30 12:11:00;;;;;;;4.07;3.77;;;31.70;33.50;;;;;;5030521;28;20850;-64
2021/05/30 12:13:36;;;;;;;3.13;2.90;;;31.90;33.80;;;;;;5031238;28;20413;-64
2021/05/30 12:16:19;;;;;;;4.07;3.50;;;32.40;33.60;;;;;;5030853;28;20998;-64
2021/05/30 12:18:56;;;;;;;3.60;3.40;;;32.90;32.70;;;;;;5030633;28;20424;-65
2021/05/30 12:21:24;;;;;;;3.20;2.93;;;32.40;33.20;;;;;;5030714;28;20770;-65
2021/05/30 12:23:50;;;;;;;3.73;3.53;;;30.70;34.10;;;;;;5030971;28;20417;-64
2021/05/30 12:26:17;;;;;;;3.60;3.30;;;30.90;32.70;;;;;;5030780;28;20444;-64
2021/05/30 12:28:43;;;;;;;3.47;3.17;;;32.00;32.20;;;;;;5030148;28;20435;-64
2021/05/30 12:31:12;;;;;;;3.23;3.03;;;33.10;31.40;;;;;;5030597;28;20941;-64
2021/05/30 12:33:53;;;;;;;3.20;3.00;;;33.20;30.50;;;;;;5030631;28;20433;-64
2021/05/30 12:36:29;;;;;;;4.00;3.60;;;31.90;30.80;;;;;;5030623;28;20459;-64
2021/05/30 12:39:05;;;;;;;3.70;3.37;;;30.90;31.80;;;;;;5030049;28;20420;-64
2021/05/30 12:41:39;;;;;;;2.93;2.70;;;30.30;32.30;;;;;;5030626;28;20972;-64
2021/05/30 12:44:08;;;;;;;3.30;3.10;;;30.50;32.40;;;;;;5030603;28;20425;-64
2021/05/30 12:46:35;;;;;;;3.63;3.43;;;30.50;32.50;;;;;;5030576;28;20539;-64
2021/05/30 12:49:15;;;;;;;3.13;2.90;;;31.90;32.70;;;;;;5029850;28;20454;-64
2021/05/30 12:51:57;;;;;;;3.50;3.30;;;29.50;32.50;;;;;;5030584;28;20451;-64
2021/05/30 12:54:23;;;;;;;3.33;3.13;;;27.00;34.80;;;;;;5030658;28;20421;-64